sensor_id;sensor_type;location;lat;lon;timestamp;pressure;altitude;pressure_sealevel;temperature;humidity
77263;BME280;66373;52.334;4.806;2023-12-20T00:00:35;101469.28;;;20.24;54.87
77263;BME280;66373;52.334;4.806;2023-12-20T00:03:03;101466.66;;;20.25;54.41
77263;BME280;66373;52.334;4.806;2023-12-20T00:05:31;101464.91;;;20.26;54.41
77263;BME280;66373;52.334;4.806;2023-12-20T00:07:59;101450.13;;;20.25;54.82
77263;BME280;66373;52.334;4.806;2023-12-20T00:10:26;101457.06;;;20.26;54.69
77263;BME280;66373;52.334;4.806;2023-12-20T00:12:55;101460.56;;;20.25;54.78
77263;BME280;66373;52.334;4.806;2023-12-20T00:15:22;101465.69;;;20.28;54.65
77263;BME280;66373;52.334;4.806;2023-12-20T00:17:49;101458.81;;;20.25;54.45
77263;BME280;66373;52.334;4.806;2023-12-20T00:20:17;101462.28;;;20.26;54.68
77263;BME280;66373;52.334;4.806;2023-12-20T00:22:44;101467.50;;;20.26;54.59
77263;BME280;66373;52.334;4.806;2023-12-20T00:25:12;101455.34;;;20.25;54.52
77263;BME280;66373;52.334;4.806;2023-12-20T00:27:39;101409.59;;;20.04;54.30
77263;BME280;66373;52.334;4.806;2023-12-20T00:30:09;101449.97;;;20.31;54.37
77263;BME280;66373;52.334;4.806;2023-12-20T00:32:37;101456.97;;;20.29;54.22
77263;BME280;66373;52.334;4.806;2023-12-20T00:35:04;101456.16;;;20.27;54.38
77263;BME280;66373;52.334;4.806;2023-12-20T00:37:32;101434.63;;;20.16;54.46
77263;BME280;66373;52.334;4.806;2023-12-20T00:39:59;101463.00;;;20.32;54.36
77263;BME280;66373;52.334;4.806;2023-12-20T00:42:28;101451.00;;;20.24;54.67
77263;BME280;66373;52.334;4.806;2023-12-20T00:44:55;101457.94;;;20.26;54.41
77263;BME280;66373;52.334;4.806;2023-12-20T00:47:24;101432.84;;;20.18;54.52
77263;BME280;66373;52.334;4.806;2023-12-20T00:49:51;101434.34;;;20.28;53.95
77263;BME280;66373;52.334;4.806;2023-12-20T00:52:19;101420.63;;;20.20;54.39
77263;BME280;66373;52.334;4.806;2023-12-20T00:54:48;101428.38;;;20.23;54.44
77263;BME280;66373;52.334;4.806;2023-12-20T00:57:15;101436.06;;;20.29;54.40
77263;BME280;66373;52.334;4.806;2023-12-20T00:59:43;101425.88;;;20.18;54.55
77263;BME280;66373;52.334;4.806;2023-12-20T01:02:10;101387.16;;;19.95;54.28
77263;BME280;66373;52.334;4.806;2023-12-20T01:04:39;101452.59;;;20.31;54.15
77263;BME280;66373;52.334;4.806;2023-12-20T01:07:07;101459.44;;;20.38;54.19
77263;BME280;66373;52.334;4.806;2023-12-20T01:09:34;101398.38;;;20.01;54.00
77263;BME280;66373;52.334;4.806;2023-12-20T01:12:02;101445.66;;;20.28;54.15
77263;BME280;66373;52.334;4.806;2023-12-20T01:14:29;101447.38;;;20.29;54.09
77263;BME280;66373;52.334;4.806;2023-12-20T01:16:57;101428.50;;;20.17;54.19
77263;BME280;66373;52.334;4.806;2023-12-20T01:19:24;101460.34;;;20.37;53.84
77263;BME280;66373;52.334;4.806;2023-12-20T01:21:54;101458.56;;;20.39;54.30
77263;BME280;66373;52.334;4.806;2023-12-20T01:24:24;101413.91;;;20.07;53.94
77263;BME280;66373;52.334;4.806;2023-12-20T01:26:52;101436.06;;;20.29;54.13
77263;BME280;66373;52.334;4.806;2023-12-20T01:29:20;101437.78;;;20.30;54.11
77263;BME280;66373;52.334;4.806;2023-12-20T01:31:48;101397.38;;;20.06;54.28
77263;BME280;66373;52.334;4.806;2023-12-20T01:34:16;101430.84;;;20.29;53.93
77263;BME280;66373;52.334;4.806;2023-12-20T01:36:43;101449.00;;;20.35;54.03
77263;BME280;66373;52.334;4.806;2023-12-20T01:39:15;101427.50;;;20.24;54.07
77263;BME280;66373;52.334;4.806;2023-12-20T01:41:42;101441.25;;;20.32;53.89
77263;BME280;66373;52.334;4.806;2023-12-20T01:44:09;101403.53;;;20.04;53.91
77263;BME280;66373;52.334;4.806;2023-12-20T01:46:37;101415.50;;;20.14;54.23
77263;BME280;66373;52.334;4.806;2023-12-20T01:49:04;101453.47;;;20.30;54.02
77263;BME280;66373;52.334;4.806;2023-12-20T01:51:32;101445.66;;;20.28;54.24
77263;BME280;66373;52.334;4.806;2023-12-20T01:54:00;101444.91;;;20.25;54.10
77263;BME280;66373;52.334;4.806;2023-12-20T01:56:30;101451.69;;;20.32;53.81
77263;BME280;66373;52.334;4.806;2023-12-20T01:58:58;101441.38;;;20.26;54.17
77263;BME280;66373;52.334;4.806;2023-12-20T02:01:28;101435.16;;;20.31;54.31
77263;BME280;66373;52.334;4.806;2023-12-20T02:03:56;101436.09;;;20.27;54.02
77263;BME280;66373;52.334;4.806;2023-12-20T02:06:25;101447.34;;;20.31;54.13
77263;BME280;66373;52.334;4.806;2023-12-20T02:08:57;101445.63;;;20.30;54.22
77263;BME280;66373;52.334;4.806;2023-12-20T02:11:25;101436.22;;;20.23;54.05
77263;BME280;66373;52.334;4.806;2023-12-20T02:13:54;101431.91;;;20.22;54.09
77263;BME280;66373;52.334;4.806;2023-12-20T02:16:22;101449.97;;;20.31;53.84
77263;BME280;66373;52.334;4.806;2023-12-20T02:18:50;101412.94;;;20.12;54.06
77263;BME280;66373;52.334;4.806;2023-12-20T02:21:17;101390.66;;;19.96;54.06
77263;BME280;66373;52.334;4.806;2023-12-20T02:23:46;101419.75;;;20.19;53.86
77263;BME280;66373;52.334;4.806;2023-12-20T02:26:13;101430.94;;;20.26;53.76
77263;BME280;66373;52.334;4.806;2023-12-20T02:28:41;101432.63;;;20.27;54.03
77263;BME280;66373;52.334;4.806;2023-12-20T02:31:08;101408.53;;;20.14;53.73
77263;BME280;66373;52.334;4.806;2023-12-20T02:33:35;101413.66;;;20.19;54.08
77263;BME280;66373;52.334;4.806;2023-12-20T02:36:03;101427.50;;;20.24;53.79
77263;BME280;66373;52.334;4.806;2023-12-20T02:38:30;101416.28;;;20.19;53.91
77263;BME280;66373;52.334;4.806;2023-12-20T02:40:59;101391.34;;;20.03;53.87
77263;BME280;66373;52.334;4.806;2023-12-20T02:43:26;101424.00;;;20.25;54.39
77263;BME280;66373;52.334;4.806;2023-12-20T02:45:53;101421.41;;;20.23;54.31
77263;BME280;66373;52.334;4.806;2023-12-20T02:48:21;101414.50;;;20.21;54.18
77263;BME280;66373;52.334;4.806;2023-12-20T02:50:48;101397.31;;;20.09;54.18
77263;BME280;66373;52.334;4.806;2023-12-20T02:53:15;101417.94;;;20.23;54.30
77263;BME280;66373;52.334;4.806;2023-12-20T02:55:43;101403.34;;;20.13;54.00
77263;BME280;66373;52.334;4.806;2023-12-20T02:58:11;101410.22;;;20.17;54.23
77263;BME280;66373;52.334;4.806;2023-12-20T03:00:39;101408.44;;;20.19;53.90
77263;BME280;66373;52.334;4.806;2023-12-20T03:03:06;101411.91;;;20.19;53.85
77263;BME280;66373;52.334;4.806;2023-12-20T03:05:33;101373.91;;;20.05;54.00
77263;BME280;66373;52.334;4.806;2023-12-20T03:08:01;101385.13;;;20.10;53.93
77263;BME280;66373;52.334;4.806;2023-12-20T03:10:29;101333.44;;;19.84;53.84
77263;BME280;66373;52.334;4.806;2023-12-20T03:12:56;101389.38;;;20.14;53.86
77263;BME280;66373;52.334;4.806;2023-12-20T03:15:24;101384.16;;;20.14;54.13
77263;BME280;66373;52.334;4.806;2023-12-20T03:17:52;101344.56;;;19.93;54.08
77263;BME280;66373;52.334;4.806;2023-12-20T03:20:19;101368.69;;;20.05;53.96
77263;BME280;66373;52.334;4.806;2023-12-20T03:22:46;101379.94;;;20.08;54.24
77263;BME280;66373;52.334;4.806;2023-12-20T03:25:14;101370.34;;;20.09;54.06
77263;BME280;66373;52.334;4.806;2023-12-20T03:27:41;101368.84;;;19.98;53.85
77263;BME280;66373;52.334;4.806;2023-12-20T03:30:09;101404.19;;;20.13;53.87
77263;BME280;66373;52.334;4.806;2023-12-20T03:32:38;101393.03;;;20.05;53.86
77263;BME280;66373;52.334;4.806;2023-12-20T03:35:06;101386.25;;;19.98;54.14
77263;BME280;66373;52.334;4.806;2023-12-20T03:37:33;101381.97;;;19.94;54.01
77263;BME280;66373;52.334;4.806;2023-12-20T03:40:00;101401.75;;;20.06;54.37
77263;BME280;66373;52.334;4.806;2023-12-20T03:42:27;101398.25;;;20.07;54.12
77263;BME280;66373;52.334;4.806;2023-12-20T03:44:55;101406.91;;;20.09;54.07
77263;BME280;66373;52.334;4.806;2023-12-20T03:47:22;101405.19;;;20.08;53.99
77263;BME280;66373;52.334;4.806;2023-12-20T03:49:51;101404.41;;;20.03;54.04
77263;BME280;66373;52.334;4.806;2023-12-20T03:52:18;101417.41;;;20.06;54.07
77263;BME280;66373;52.334;4.806;2023-12-20T03:54:45;101403.50;;;20.05;54.22
77263;BME280;66373;52.334;4.806;2023-12-20T03:57:12;101404.34;;;20.06;53.63
77263;BME280;66373;52.334;4.806;2023-12-20T03:59:39;101400.00;;;20.05;53.81
77263;BME280;66373;52.334;4.806;2023-12-20T04:02:07;101385.38;;;19.97;53.96
77263;BME280;66373;52.334;4.806;2023-12-20T04:04:34;101389.72;;;19.98;53.86
77263;BME280;66373;52.334;4.806;2023-12-20T04:07:03;101385.47;;;19.93;54.00
77263;BME280;66373;52.334;4.806;2023-12-20T04:09:30;101336.34;;;19.70;53.89
77263;BME280;66373;52.334;4.806;2023-12-20T04:11:57;101374.19;;;19.92;53.99
77263;BME280;66373;52.334;4.806;2023-12-20T04:14:25;101373.25;;;19.95;54.21
77263;BME280;66373;52.334;4.806;2023-12-20T04:16:52;101376.66;;;19.98;54.02
77263;BME280;66373;52.334;4.806;2023-12-20T04:19:19;101344.91;;;19.75;53.67
77263;BME280;66373;52.334;4.806;2023-12-20T04:21:47;101370.72;;;19.90;54.11
77263;BME280;66373;52.334;4.806;2023-12-20T04:24:16;101386.28;;;19.96;53.79
77263;BME280;66373;52.334;4.806;2023-12-20T04:26:43;101388.91;;;19.95;53.99
77263;BME280;66373;52.334;4.806;2023-12-20T04:29:11;101368.34;;;19.78;54.23
77263;BME280;66373;52.334;4.806;2023-12-20T04:31:38;101370.06;;;19.79;54.14
77263;BME280;66373;52.334;4.806;2023-12-20T04:34:05;101390.72;;;19.91;54.11
77263;BME280;66373;52.334;4.806;2023-12-20T04:36:33;101374.22;;;19.89;53.84
77263;BME280;66373;52.334;4.806;2023-12-20T04:39:00;101366.56;;;19.80;54.00
77263;BME280;66373;52.334;4.806;2023-12-20T04:41:29;101366.34;;;19.92;53.81
77263;BME280;66373;52.334;4.806;2023-12-20T04:43:56;101360.41;;;19.84;54.09
77263;BME280;66373;52.334;4.806;2023-12-20T04:46:23;101365.50;;;19.90;53.97
77263;BME280;66373;52.334;4.806;2023-12-20T04:48:51;101360.31;;;19.89;53.79
77263;BME280;66373;52.334;4.806;2023-12-20T04:51:18;101349.09;;;19.84;54.06
77263;BME280;66373;52.334;4.806;2023-12-20T04:53:45;101331.06;;;19.73;54.13
77263;BME280;66373;52.334;4.806;2023-12-20T04:56:13;101322.47;;;19.68;54.34
77263;BME280;66373;52.334;4.806;2023-12-20T04:58:42;101356.13;;;19.80;53.94
77263;BME280;66373;52.334;4.806;2023-12-20T05:01:09;101364.78;;;19.82;54.08
77263;BME280;66373;52.334;4.806;2023-12-20T05:03:37;101331.31;;;19.61;54.32
77263;BME280;66373;52.334;4.806;2023-12-20T05:06:04;101372.59;;;19.84;54.37
77263;BME280;66373;52.334;4.806;2023-12-20T05:08:32;101350.13;;;19.75;53.89
77263;BME280;66373;52.334;4.806;2023-12-20T05:10:59;101313.97;;;19.57;54.19
77263;BME280;66373;52.334;4.806;2023-12-20T05:13:26;101356.28;;;19.74;54.03
77263;BME280;66373;52.334;4.806;2023-12-20T05:15:55;101359.75;;;19.75;54.08
77263;BME280;66373;52.334;4.806;2023-12-20T05:18:22;101362.38;;;19.73;53.92
77263;BME280;66373;52.334;4.806;2023-12-20T05:20:50;101340.72;;;19.70;53.94
77263;BME280;66373;52.334;4.806;2023-12-20T05:23:18;101355.31;;;19.78;53.84
77263;BME280;66373;52.334;4.806;2023-12-20T05:25:46;101349.34;;;19.73;53.93
77263;BME280;66373;52.334;4.806;2023-12-20T05:28:13;101359.66;;;19.78;53.79
77263;BME280;66373;52.334;4.806;2023-12-20T05:30:40;101350.13;;;19.75;54.21
77263;BME280;66373;52.334;4.806;2023-12-20T05:33:09;101307.25;;;19.44;53.86
77263;BME280;66373;52.334;4.806;2023-12-20T05:35:36;101348.53;;;19.70;53.89
77263;BME280;66373;52.334;4.806;2023-12-20T05:38:03;101334.81;;;19.60;54.07
77263;BME280;66373;52.334;4.806;2023-12-20T05:40:31;101332.97;;;19.65;54.13
77263;BME280;66373;52.334;4.806;2023-12-20T05:42:58;101333.81;;;19.65;53.80
77263;BME280;66373;52.334;4.806;2023-12-20T05:45:25;101337.34;;;19.63;54.02
77263;BME280;66373;52.334;4.806;2023-12-20T05:47:52;101296.03;;;19.40;53.82
77263;BME280;66373;52.334;4.806;2023-12-20T05:50:21;101348.56;;;19.68;53.87
77263;BME280;66373;52.334;4.806;2023-12-20T05:52:48;101321.09;;;19.49;54.17
77263;BME280;66373;52.334;4.806;2023-12-20T05:55:16;101298.59;;;19.42;53.90
77263;BME280;66373;52.334;4.806;2023-12-20T05:57:43;101325.31;;;19.56;53.79
77263;BME280;66373;52.334;4.806;2023-12-20T06:00:11;101343.41;;;19.65;54.26
77263;BME280;66373;52.334;4.806;2023-12-20T06:02:39;101311.53;;;19.48;54.10
77263;BME280;66373;52.334;4.806;2023-12-20T06:05:07;101332.16;;;19.61;54.00
77263;BME280;66373;52.334;4.806;2023-12-20T06:07:36;101336.50;;;19.62;54.00
77263;BME280;66373;52.334;4.806;2023-12-20T06:10:04;101296.88;;;19.41;53.92
77263;BME280;66373;52.334;4.806;2023-12-20T06:12:31;101312.44;;;19.47;53.89
77263;BME280;66373;52.334;4.806;2023-12-20T06:15:01;101274.56;;;19.24;54.22
77263;BME280;66373;52.334;4.806;2023-12-20T06:17:29;101323.63;;;19.52;54.17
77263;BME280;66373;52.334;4.806;2023-12-20T06:19:57;101334.03;;;19.55;54.17
77263;BME280;66373;52.334;4.806;2023-12-20T06:22:24;101332.47;;;19.45;54.52
77263;BME280;66373;52.334;4.806;2023-12-20T06:24:53;101327.19;;;19.48;54.55
77263;BME280;66373;52.334;4.806;2023-12-20T06:27:20;101347.06;;;19.55;54.32
77263;BME280;66373;52.334;4.806;2023-12-20T06:29:47;101346.25;;;19.53;54.32
77263;BME280;66373;52.334;4.806;2023-12-20T06:32:15;101342.84;;;19.48;54.66
77263;BME280;66373;52.334;4.806;2023-12-20T06:34:42;101341.91;;;19.52;54.51
77263;BME280;66373;52.334;4.806;2023-12-20T06:37:10;101323.88;;;19.38;54.21
77263;BME280;66373;52.334;4.806;2023-12-20T06:39:37;101316.94;;;19.37;54.27
77263;BME280;66373;52.334;4.806;2023-12-20T06:42:06;101336.78;;;19.46;54.42
77263;BME280;66373;52.334;4.806;2023-12-20T06:44:33;101317.91;;;19.31;54.20
77263;BME280;66373;52.334;4.806;2023-12-20T06:47:01;101341.22;;;19.42;54.50
77263;BME280;66373;52.334;4.806;2023-12-20T06:49:28;101328.13;;;19.44;54.31
77263;BME280;66373;52.334;4.806;2023-12-20T06:51:55;101328.09;;;19.47;54.42
77263;BME280;66373;52.334;4.806;2023-12-20T06:54:22;101327.31;;;19.42;54.55
77263;BME280;66373;52.334;4.806;2023-12-20T06:56:50;101308.44;;;19.27;54.57
77263;BME280;66373;52.334;4.806;2023-12-20T06:59:18;101329.84;;;19.45;54.84
77263;BME280;66373;52.334;4.806;2023-12-20T07:01:47;101321.19;;;19.43;54.39
77263;BME280;66373;52.334;4.806;2023-12-20T07:04:17;101318.66;;;19.38;54.62
77263;BME280;66373;52.334;4.806;2023-12-20T07:06:47;101309.22;;;19.32;54.44
77263;BME280;66373;52.334;4.806;2023-12-20T07:09:17;101316.13;;;19.35;54.49
77263;BME280;66373;52.334;4.806;2023-12-20T07:11:45;101269.59;;;19.12;54.71
77263;BME280;66373;52.334;4.806;2023-12-20T07:14:13;101275.66;;;19.14;54.77
77263;BME280;66373;52.334;4.806;2023-12-20T07:16:42;101287.81;;;19.15;54.55
77263;BME280;66373;52.334;4.806;2023-12-20T07:19:09;101249.09;;;18.94;54.87
77263;BME280;66373;52.334;4.806;2023-12-20T07:21:36;101312.69;;;19.31;54.69
77263;BME280;66373;52.334;4.806;2023-12-20T07:24:04;101321.38;;;19.33;55.07
77263;BME280;66373;52.334;4.806;2023-12-20T07:26:35;101312.69;;;19.31;55.05
77263;BME280;66373;52.334;4.806;2023-12-20T07:29:03;101309.38;;;19.23;54.75
77263;BME280;66373;52.334;4.806;2023-12-20T07:31:31;101308.44;;;19.26;55.15
77263;BME280;66373;52.334;4.806;2023-12-20T07:34:00;101318.03;;;19.25;55.27
77263;BME280;66373;52.334;4.806;2023-12-20T07:36:27;101299.03;;;19.20;54.79
77263;BME280;66373;52.334;4.806;2023-12-20T07:38:54;101307.81;;;19.15;55.24
77263;BME280;66373;52.334;4.806;2023-12-20T07:41:21;101257.06;;;18.85;55.19
77263;BME280;66373;52.334;4.806;2023-12-20T07:43:49;101330.38;;;19.17;54.95
77263;BME280;66373;52.334;4.806;2023-12-20T07:46:16;101321.75;;;19.12;54.96
77263;BME280;66373;52.334;4.806;2023-12-20T07:48:48;101287.31;;;18.95;54.99
77263;BME280;66373;52.334;4.806;2023-12-20T07:51:17;101321.75;;;19.12;55.34
77263;BME280;66373;52.334;4.806;2023-12-20T07:53:45;101340.84;;;19.14;55.33
77263;BME280;66373;52.334;4.806;2023-12-20T07:56:15;101327.97;;;19.05;55.27
77263;BME280;66373;52.334;4.806;2023-12-20T07:58:43;101342.72;;;19.06;55.01
77263;BME280;66373;52.334;4.806;2023-12-20T08:01:12;101337.53;;;19.05;55.23
77263;BME280;66373;52.334;4.806;2023-12-20T08:03:39;101347.06;;;19.07;55.25
77263;BME280;66373;52.334;4.806;2023-12-20T08:06:06;101339.34;;;18.99;55.44
77263;BME280;66373;52.334;4.806;2023-12-20T08:08:35;101350.53;;;19.08;55.53
77263;BME280;66373;52.334;4.806;2023-12-20T08:11:02;101340.13;;;19.05;55.47
77263;BME280;66373;52.334;4.806;2023-12-20T08:13:30;101320.47;;;18.87;55.37
77263;BME280;66373;52.334;4.806;2023-12-20T08:15:57;101339.28;;;19.04;55.36
77263;BME280;66373;52.334;4.806;2023-12-20T08:18:25;101343.66;;;19.02;55.62
77263;BME280;66373;52.334;4.806;2023-12-20T08:20:52;101336.81;;;18.96;55.56
77263;BME280;66373;52.334;4.806;2023-12-20T08:23:19;101345.44;;;19.00;55.27
77263;BME280;66373;52.334;4.806;2023-12-20T08:25:48;101313.59;;;18.83;55.79
77263;BME280;66373;52.334;4.806;2023-12-20T08:28:16;101323.91;;;18.89;55.73
77263;BME280;66373;52.334;4.806;2023-12-20T08:30:43;101332.53;;;18.94;55.76
77263;BME280;66373;52.334;4.806;2023-12-20T08:33:10;101338.56;;;18.96;55.22
77263;BME280;66373;52.334;4.806;2023-12-20T08:35:38;101334.28;;;18.92;55.67
77263;BME280;66373;52.334;4.806;2023-12-20T08:38:06;101349.91;;;18.93;55.39
77263;BME280;66373;52.334;4.806;2023-12-20T08:40:33;101346.44;;;18.93;55.70
77263;BME280;66373;52.334;4.806;2023-12-20T08:43:03;101353.44;;;18.91;55.57
77263;BME280;66373;52.334;4.806;2023-12-20T08:45:30;101349.94;;;18.92;55.63
77263;BME280;66373;52.334;4.806;2023-12-20T08:47:57;101355.19;;;18.89;55.47
77263;BME280;66373;52.334;4.806;2023-12-20T08:50:25;101358.69;;;18.88;55.38
77263;BME280;66373;52.334;4.806;2023-12-20T08:52:53;101347.50;;;18.80;55.39
77263;BME280;66373;52.334;4.806;2023-12-20T08:55:20;101355.25;;;18.86;55.69
77263;BME280;66373;52.334;4.806;2023-12-20T08:57:47;101318.25;;;18.64;55.57
77263;BME280;66373;52.334;4.806;2023-12-20T09:00:18;101300.09;;;18.56;55.50
77263;BME280;66373;52.334;4.806;2023-12-20T09:02:50;101331.13;;;18.72;55.39
77263;BME280;66373;52.334;4.806;2023-12-20T09:05:17;101340.53;;;18.82;55.29
77263;BME280;66373;52.334;4.806;2023-12-20T09:07:45;101334.50;;;18.78;55.34
77263;BME280;66373;52.334;4.806;2023-12-20T09:10:13;101332.78;;;18.77;55.47
77263;BME280;66373;52.334;4.806;2023-12-20T09:12:43;101334.56;;;18.74;55.42
77263;BME280;66373;52.334;4.806;2023-12-20T09:15:13;101330.28;;;18.71;55.81
77263;BME280;66373;52.334;4.806;2023-12-20T09:17:42;101323.47;;;18.64;55.67
77263;BME280;66373;52.334;4.806;2023-12-20T09:20:10;101327.81;;;18.63;55.63
77263;BME280;66373;52.334;4.806;2023-12-20T09:22:39;101315.72;;;18.59;55.78
77263;BME280;66373;52.334;4.806;2023-12-20T09:25:08;101322.59;;;18.63;55.73
77263;BME280;66373;52.334;4.806;2023-12-20T09:27:36;101324.28;;;18.68;55.40
77263;BME280;66373;52.334;4.806;2023-12-20T09:30:04;101316.53;;;18.63;55.63
77263;BME280;66373;52.334;4.806;2023-12-20T09:32:32;101333.84;;;18.66;55.67
77263;BME280;66373;52.334;4.806;2023-12-20T09:35:00;101338.06;;;18.73;55.56
77263;BME280;66373;52.334;4.806;2023-12-20T09:37:28;101342.41;;;18.72;55.67
77263;BME280;66373;52.334;4.806;2023-12-20T09:39:55;101295.09;;;18.43;55.55
77263;BME280;66373;52.334;4.806;2023-12-20T09:42:29;101309.75;;;18.50;55.68
77263;BME280;66373;52.334;4.806;2023-12-20T09:45:02;101347.69;;;18.69;55.93
77263;BME280;66373;52.334;4.806;2023-12-20T09:47:29;101319.34;;;18.46;55.53
77263;BME280;66373;52.334;4.806;2023-12-20T09:50:01;101321.88;;;18.51;55.67
77263;BME280;66373;52.334;4.806;2023-12-20T09:52:29;101337.47;;;18.54;55.34
77263;BME280;66373;52.334;4.806;2023-12-20T09:54:57;101333.16;;;18.51;55.66
77263;BME280;66373;52.334;4.806;2023-12-20T09:57:24;101327.22;;;18.45;55.41
77263;BME280;66373;52.334;4.806;2023-12-20T09:59:52;101312.53;;;18.39;55.78
77263;BME280;66373;52.334;4.806;2023-12-20T10:02:21;101350.47;;;18.55;55.38
77263;BME280;66373;52.334;4.806;2023-12-20T10:04:54;101315.19;;;18.36;55.43
77263;BME280;66373;52.334;4.806;2023-12-20T10:07:23;101338.38;;;18.51;55.52
77263;BME280;66373;52.334;4.806;2023-12-20T10:09:54;101334.09;;;18.46;55.28
77263;BME280;66373;52.334;4.806;2023-12-20T10:12:21;101348.75;;;18.54;55.57
77263;BME280;66373;52.334;4.806;2023-12-20T10:14:49;101297.09;;;18.24;55.87
77263;BME280;66373;52.334;4.806;2023-12-20T10:17:16;101356.50;;;18.59;55.67
77263;BME280;66373;52.334;4.806;2023-12-20T10:19:44;101354.84;;;18.53;55.55
77263;BME280;66373;52.334;4.806;2023-12-20T10:22:11;101310.94;;;18.29;55.33
77263;BME280;66373;52.334;4.806;2023-12-20T10:24:41;101353.94;;;18.56;55.36
77263;BME280;66373;52.334;4.806;2023-12-20T10:27:08;101320.41;;;18.35;55.55
77263;BME280;66373;52.334;4.806;2023-12-20T10:29:36;101341.84;;;18.50;55.37
77263;BME280;66373;52.334;4.806;2023-12-20T10:32:23;101334.03;;;18.52;55.46
77263;BME280;66373;52.334;4.806;2023-12-20T10:34:51;101342.69;;;18.54;55.35
77263;BME280;66373;52.334;4.806;2023-12-20T10:37:18;101349.66;;;18.52;55.34
77263;BME280;66373;52.334;4.806;2023-12-20T10:39:50;101331.44;;;18.50;55.12
77263;BME280;66373;52.334;4.806;2023-12-20T10:42:20;101327.06;;;18.52;55.64
77263;BME280;66373;52.334;4.806;2023-12-20T10:44:49;101307.34;;;18.36;55.44
77263;BME280;66373;52.334;4.806;2023-12-20T10:47:17;101329.69;;;18.52;55.53
77263;BME280;66373;52.334;4.806;2023-12-20T10:49:47;101329.69;;;18.52;55.53
77263;BME280;66373;52.334;4.806;2023-12-20T10:52:16;101315.84;;;18.47;55.51
77263;BME280;66373;52.334;4.806;2023-12-20T10:54:44;101278.78;;;18.31;55.22
77263;BME280;66373;52.334;4.806;2023-12-20T10:57:13;101315.81;;;18.50;55.41
77263;BME280;66373;52.334;4.806;2023-12-20T10:59:45;101290.00;;;18.35;55.38
77263;BME280;66373;52.334;4.806;2023-12-20T11:02:13;101309.00;;;18.43;55.69
77263;BME280;66373;52.334;4.806;2023-12-20T11:04:44;101265.00;;;18.23;55.56
77263;BME280;66373;52.334;4.806;2023-12-20T11:07:20;101314.13;;;18.46;55.51
77263;BME280;66373;52.334;4.806;2023-12-20T11:09:56;101307.16;;;18.48;55.43
77263;BME280;66373;52.334;4.806;2023-12-20T11:12:35;101320.16;;;18.50;55.70
77263;BME280;66373;52.334;4.806;2023-12-20T11:15:08;101280.53;;;18.29;55.80
77263;BME280;66373;52.334;4.806;2023-12-20T11:17:39;101300.34;;;18.41;55.62
77263;BME280;66373;52.334;4.806;2023-12-20T11:20:08;101271.09;;;18.21;55.48
77263;BME280;66373;52.334;4.806;2023-12-20T11:22:37;101277.94;;;18.28;55.70
77263;BME280;66373;52.334;4.806;2023-12-20T11:25:08;101299.44;;;18.44;55.50
77263;BME280;66373;52.334;4.806;2023-12-20T11:27:41;101296.84;;;18.42;55.91
77263;BME280;66373;52.334;4.806;2023-12-20T11:30:10;101299.47;;;18.42;55.78
77263;BME280;66373;52.334;4.806;2023-12-20T11:32:40;101282.13;;;18.40;55.42
77263;BME280;66373;52.334;4.806;2023-12-20T11:35:19;101281.28;;;18.39;55.96
77263;BME280;66373;52.334;4.806;2023-12-20T11:37:51;101287.22;;;18.46;55.63
77263;BME280;66373;52.334;4.806;2023-12-20T11:40:18;101292.50;;;18.43;55.46
77263;BME280;66373;52.334;4.806;2023-12-20T11:42:50;101289.88;;;18.44;55.47
77263;BME280;66373;52.334;4.806;2023-12-20T11:45:19;101296.84;;;18.42;55.49
77263;BME280;66373;52.334;4.806;2023-12-20T11:47:48;101284.66;;;18.44;55.47
77263;BME280;66373;52.334;4.806;2023-12-20T11:50:16;101267.41;;;18.37;55.87
77263;BME280;66373;52.334;4.806;2023-12-20T11:52:44;101269.97;;;18.40;55.86
77263;BME280;66373;52.334;4.806;2023-12-20T11:55:11;101271.78;;;18.35;55.68
77263;BME280;66373;52.334;4.806;2023-12-20T11:57:39;101279.47;;;18.44;55.82
77263;BME280;66373;52.334;4.806;2023-12-20T12:00:10;101227.94;;;18.08;55.67
77263;BME280;66373;52.334;4.806;2023-12-20T12:02:40;101269.16;;;18.37;55.54
77263;BME280;66373;52.334;4.806;2023-12-20T12:05:07;101276.19;;;18.30;55.52
77263;BME280;66373;52.334;4.806;2023-12-20T12:07:35;101274.47;;;18.29;55.64
77263;BME280;66373;52.334;4.806;2023-12-20T12:10:06;101279.59;;;18.35;55.71
77263;BME280;66373;52.334;4.806;2023-12-20T12:12:34;101278.69;;;18.38;55.75
77263;BME280;66373;52.334;4.806;2023-12-20T12:15:01;101233.06;;;18.14;56.03
77263;BME280;66373;52.334;4.806;2023-12-20T12:17:30;101241.59;;;18.22;55.57
77263;BME280;66373;52.334;4.806;2023-12-20T12:20:02;101269.09;;;18.41;55.42
77263;BME280;66373;52.334;4.806;2023-12-20T12:22:30;101240.66;;;18.26;55.88
77263;BME280;66373;52.334;4.806;2023-12-20T12:24:59;101248.28;;;18.38;55.64
77263;BME280;66373;52.334;4.806;2023-12-20T12:27:36;101208.75;;;18.15;55.60
77263;BME280;66373;52.334;4.806;2023-12-20T12:30:08;101180.34;;;17.98;55.60
77263;BME280;66373;52.334;4.806;2023-12-20T12:32:40;101243.94;;;18.39;55.56
77263;BME280;66373;52.334;4.806;2023-12-20T12:35:08;101212.91;;;18.25;55.45
77263;BME280;66373;52.334;4.806;2023-12-20T12:37:38;101218.13;;;18.23;55.96
77263;BME280;66373;52.334;4.806;2023-12-20T12:40:09;101237.00;;;18.39;55.91
77263;BME280;66373;52.334;4.806;2023-12-20T12:42:37;101243.09;;;18.38;55.96
77263;BME280;66373;52.334;4.806;2023-12-20T12:45:05;101203.56;;;18.13;55.81
77263;BME280;66373;52.334;4.806;2023-12-20T12:47:33;101221.50;;;18.30;55.64
77263;BME280;66373;52.334;4.806;2023-12-20T12:50:02;101228.34;;;18.37;55.57
77263;BME280;66373;52.334;4.806;2023-12-20T12:52:30;101226.63;;;18.36;55.41
77263;BME280;66373;52.334;4.806;2023-12-20T12:54:57;101225.78;;;18.34;55.95